Terminal Aerodrome Forecast
Issued by NWS

Home | Current Version | Previous Version | Text Only | Print | Product List | Glossary Off
Versions: 1 2 3 4 5 6 7 8 9 10 11 12 13 14

000
FTUS43 KMPX 132337
TAFRNH
TAF
KRNH 132337Z 1400/1424 00000KT P6SM SKC
     FM141000 15004KT P6SM BKN200
     FM141600 17008KT 4SM -SHSN SCT025 BKN035
     FM142000 17010KT 3/4SM -SN BR VV006=

USA.gov is the U.S. government's official web portal to all federal, state and local government web resources and services.